sensor_id;sensor_type;location;lat;lon;timestamp;pressure;altitude;pressure_sealevel;temperature;humidity
35519;BME280;21627;48.216;16.482;2022-10-16T00:01:38;100066.16;;;10.67;100.00
35519;BME280;21627;48.216;16.482;2022-10-16T00:04:05;100070.50;;;10.71;100.00
35519;BME280;21627;48.216;16.482;2022-10-16T00:06:36;100076.50;;;10.67;100.00
35519;BME280;21627;48.216;16.482;2022-10-16T00:09:05;100076.47;;;10.63;100.00
35519;BME280;21627;48.216;16.482;2022-10-16T00:11:36;100073.91;;;10.63;100.00
35519;BME280;21627;48.216;16.482;2022-10-16T00:14:11;100052.31;;;10.48;100.00
35519;BME280;21627;48.216;16.482;2022-10-16T00:16:39;100070.44;;;10.57;100.00
35519;BME280;21627;48.216;16.482;2022-10-16T00:19:06;100079.91;;;10.54;100.00
35519;BME280;21627;48.216;16.482;2022-10-16T00:21:34;100077.31;;;10.51;100.00
35519;BME280;21627;48.216;16.482;2022-10-16T00:24:05;100081.59;;;10.52;100.00
35519;BME280;21627;48.216;16.482;2022-10-16T00:26:34;100071.22;;;10.46;100.00
35519;BME280;21627;48.216;16.482;2022-10-16T00:29:02;100079.91;;;10.51;100.00
35519;BME280;21627;48.216;16.482;2022-10-16T00:31:30;100085.91;;;10.50;100.00
35519;BME280;21627;48.216;16.482;2022-10-16T00:33:57;100085.00;;;10.45;100.00
35519;BME280;21627;48.216;16.482;2022-10-16T00:36:26;100088.44;;;10.42;100.00
35519;BME280;21627;48.216;16.482;2022-10-16T00:38:55;100085.84;;;10.40;100.00
35519;BME280;21627;48.216;16.482;2022-10-16T00:41:24;100079.81;;;10.38;100.00
35519;BME280;21627;48.216;16.482;2022-10-16T00:43:57;100078.06;;;10.36;100.00
35519;BME280;21627;48.216;16.482;2022-10-16T00:46:38;100091.88;;;10.36;100.00
35519;BME280;21627;48.216;16.482;2022-10-16T00:49:15;100092.72;;;10.34;100.00
35519;BME280;21627;48.216;16.482;2022-10-16T00:51:52;100080.53;;;10.25;100.00
35519;BME280;21627;48.216;16.482;2022-10-16T00:54:29;100088.38;;;10.28;100.00
35519;BME280;21627;48.216;16.482;2022-10-16T00:57:02;100096.03;;;10.25;100.00
35519;BME280;21627;48.216;16.482;2022-10-16T00:59:35;100086.53;;;10.16;100.00
35519;BME280;21627;48.216;16.482;2022-10-16T01:02:05;100084.72;;;10.08;100.00
35519;BME280;21627;48.216;16.482;2022-10-16T01:04:46;100089.91;;;10.09;100.00
35519;BME280;21627;48.216;16.482;2022-10-16T01:13:04;100084.72;;;10.03;100.00
35519;BME280;21627;48.216;16.482;2022-10-16T01:16:39;100082.97;;;10.05;100.00
35519;BME280;21627;48.216;16.482;2022-10-16T01:19:02;100079.50;;;9.99;100.00
35519;BME280;21627;48.216;16.482;2022-10-16T01:21:39;100083.81;;;10.00;100.00
35519;BME280;21627;48.216;16.482;2022-10-16T01:24:40;100069.94;;;9.90;100.00
35519;BME280;21627;48.216;16.482;2022-10-16T01:30:04;100086.34;;;9.90;100.00
35519;BME280;21627;48.216;16.482;2022-10-16T01:32:49;100070.72;;;9.80;100.00
35519;BME280;21627;48.216;16.482;2022-10-16T01:38:14;100085.41;;;9.81;100.00
35519;BME280;21627;48.216;16.482;2022-10-16T01:40:49;100078.50;;;9.78;100.00
35519;BME280;21627;48.216;16.482;2022-10-16T01:43:42;100085.34;;;9.78;100.00
35519;BME280;21627;48.216;16.482;2022-10-16T01:46:10;100081.88;;;9.71;100.00
35519;BME280;21627;48.216;16.482;2022-10-16T01:48:41;100083.59;;;9.73;100.00
35519;BME280;21627;48.216;16.482;2022-10-16T01:51:13;100079.25;;;9.68;100.00
35519;BME280;21627;48.216;16.482;2022-10-16T01:53:46;100082.69;;;9.70;100.00
35519;BME280;21627;48.216;16.482;2022-10-16T01:56:15;100079.28;;;9.71;100.00
35519;BME280;21627;48.216;16.482;2022-10-16T01:58:58;100089.59;;;9.68;100.00
35519;BME280;21627;48.216;16.482;2022-10-16T02:01:28;100088.72;;;9.66;100.00
35519;BME280;21627;48.216;16.482;2022-10-16T02:04:01;100078.31;;;9.60;100.00
35519;BME280;21627;48.216;16.482;2022-10-16T02:06:29;100080.00;;;9.56;100.00
35519;BME280;21627;48.216;16.482;2022-10-16T02:08:57;100094.63;;;9.57;100.00
35519;BME280;21627;48.216;16.482;2022-10-16T02:11:24;100092.88;;;9.54;100.00
35519;BME280;21627;48.216;16.482;2022-10-16T02:13:58;100095.47;;;9.53;100.00
35519;BME280;21627;48.216;16.482;2022-10-16T02:16:41;100087.72;;;9.50;100.00
35519;BME280;21627;48.216;16.482;2022-10-16T02:19:09;100097.16;;;9.51;100.00
35519;BME280;21627;48.216;16.482;2022-10-16T02:22:00;100093.72;;;9.52;100.00
35519;BME280;21627;48.216;16.482;2022-10-16T02:24:38;100093.75;;;9.53;100.00
35519;BME280;21627;48.216;16.482;2022-10-16T02:30:03;100096.34;;;9.53;100.00
35519;BME280;21627;48.216;16.482;2022-10-16T02:32:39;100088.56;;;9.50;100.00
35519;BME280;21627;48.216;16.482;2022-10-16T02:35:08;100091.09;;;9.47;100.00
35519;BME280;21627;48.216;16.482;2022-10-16T02:37:37;100098.06;;;9.53;100.00
35519;BME280;21627;48.216;16.482;2022-10-16T02:40:06;100102.38;;;9.56;100.00
35519;BME280;21627;48.216;16.482;2022-10-16T02:42:38;100106.69;;;9.60;100.00
35519;BME280;21627;48.216;16.482;2022-10-16T02:45:10;100099.81;;;9.56;100.00
35519;BME280;21627;48.216;16.482;2022-10-16T02:47:38;100100.69;;;9.59;100.00
35519;BME280;21627;48.216;16.482;2022-10-16T02:50:06;100110.16;;;9.59;100.00
35519;BME280;21627;48.216;16.482;2022-10-16T02:52:33;100102.34;;;9.52;100.00
35519;BME280;21627;48.216;16.482;2022-10-16T02:55:00;100120.47;;;9.59;100.00
35519;BME280;21627;48.216;16.482;2022-10-16T02:57:28;100127.38;;;9.61;100.00
35519;BME280;21627;48.216;16.482;2022-10-16T02:59:55;100127.38;;;9.61;100.00
35519;BME280;21627;48.216;16.482;2022-10-16T03:02:22;100120.50;;;9.60;100.00
35519;BME280;21627;48.216;16.482;2022-10-16T03:04:49;100133.34;;;9.56;100.00
35519;BME280;21627;48.216;16.482;2022-10-16T03:07:16;100121.34;;;9.59;100.00
35519;BME280;21627;48.216;16.482;2022-10-16T03:09:43;100112.66;;;9.51;100.00
35519;BME280;21627;48.216;16.482;2022-10-16T03:12:10;100121.28;;;9.54;100.00
35519;BME280;21627;48.216;16.482;2022-10-16T03:14:38;100116.97;;;9.53;100.00
35519;BME280;21627;48.216;16.482;2022-10-16T03:17:06;100120.41;;;9.54;100.00
35519;BME280;21627;48.216;16.482;2022-10-16T03:19:34;100120.41;;;9.54;100.00
35519;BME280;21627;48.216;16.482;2022-10-16T03:22:02;100103.16;;;9.45;100.00
35519;BME280;21627;48.216;16.482;2022-10-16T03:24:29;100114.44;;;9.55;100.00
35519;BME280;21627;48.216;16.482;2022-10-16T03:26:57;100102.25;;;9.45;100.00
35519;BME280;21627;48.216;16.482;2022-10-16T03:29:24;100122.09;;;9.49;100.00
35519;BME280;21627;48.216;16.482;2022-10-16T03:31:52;100133.34;;;9.56;100.00
35519;BME280;21627;48.216;16.482;2022-10-16T03:34:19;100124.69;;;9.50;100.00
35519;BME280;21627;48.216;16.482;2022-10-16T03:36:47;100129.00;;;9.50;100.00
35519;BME280;21627;48.216;16.482;2022-10-16T03:39:14;100141.06;;;9.52;100.00
35519;BME280;21627;48.216;16.482;2022-10-16T03:41:41;100141.94;;;9.53;100.00
35519;BME280;21627;48.216;16.482;2022-10-16T03:44:08;100139.28;;;9.47;100.00
35519;BME280;21627;48.216;16.482;2022-10-16T03:46:35;100146.19;;;9.49;100.00
35519;BME280;21627;48.216;16.482;2022-10-16T03:49:02;100148.75;;;9.49;100.00
35519;BME280;21627;48.216;16.482;2022-10-16T03:51:34;100151.34;;;9.48;100.00
35519;BME280;21627;48.216;16.482;2022-10-16T03:54:01;100157.34;;;9.45;100.00
35519;BME280;21627;48.216;16.482;2022-10-16T03:56:28;100162.44;;;9.42;100.00
35519;BME280;21627;48.216;16.482;2022-10-16T03:58:55;100166.78;;;9.43;100.00
35519;BME280;21627;48.216;16.482;2022-10-16T04:01:23;100166.75;;;9.42;100.00
35519;BME280;21627;48.216;16.482;2022-10-16T04:03:50;100165.00;;;9.39;100.00
35519;BME280;21627;48.216;16.482;2022-10-16T04:06:17;100166.69;;;9.37;100.00
35519;BME280;21627;48.216;16.482;2022-10-16T04:08:44;100152.00;;;9.30;100.00
35519;BME280;21627;48.216;16.482;2022-10-16T04:11:11;100161.44;;;9.29;100.00
35519;BME280;21627;48.216;16.482;2022-10-16T04:13:39;100171.81;;;9.34;100.00
35519;BME280;21627;48.216;16.482;2022-10-16T04:16:06;100158.91;;;9.34;100.00
35519;BME280;21627;48.216;16.482;2022-10-16T04:18:33;100156.38;;;9.37;100.00
35519;BME280;21627;48.216;16.482;2022-10-16T04:21:04;100146.84;;;9.31;100.00
35519;BME280;21627;48.216;16.482;2022-10-16T04:23:31;100151.25;;;9.40;100.00
35519;BME280;21627;48.216;16.482;2022-10-16T04:26:00;100139.94;;;9.27;100.00
35519;BME280;21627;48.216;16.482;2022-10-16T04:28:27;100161.53;;;9.37;100.00
35519;BME280;21627;48.216;16.482;2022-10-16T04:30:55;100160.66;;;9.35;100.00
35519;BME280;21627;48.216;16.482;2022-10-16T04:33:22;100170.06;;;9.31;100.00
35519;BME280;21627;48.216;16.482;2022-10-16T04:35:59;100179.53;;;9.31;100.00
35519;BME280;21627;48.216;16.482;2022-10-16T04:38:27;100179.56;;;9.34;100.00
35519;BME280;21627;48.216;16.482;2022-10-16T04:40:55;100176.97;;;9.34;100.00
35519;BME280;21627;48.216;16.482;2022-10-16T04:43:22;100170.97;;;9.34;100.00
35519;BME280;21627;48.216;16.482;2022-10-16T04:45:49;100174.41;;;9.32;100.00
35519;BME280;21627;48.216;16.482;2022-10-16T04:48:21;100170.06;;;9.30;100.00
35519;BME280;21627;48.216;16.482;2022-10-16T04:50:48;100179.50;;;9.29;100.00
35519;BME280;21627;48.216;16.482;2022-10-16T04:53:21;100185.47;;;9.24;100.00
35519;BME280;21627;48.216;16.482;2022-10-16T04:55:48;100189.81;;;9.28;100.00
35519;BME280;21627;48.216;16.482;2022-10-16T04:58:15;100191.66;;;9.38;100.00
35519;BME280;21627;48.216;16.482;2022-10-16T05:00:43;100166.66;;;9.34;100.00
35519;BME280;21627;48.216;16.482;2022-10-16T05:03:11;100179.66;;;9.42;100.00
35519;BME280;21627;48.216;16.482;2022-10-16T05:05:43;100189.97;;;9.40;100.00
35519;BME280;21627;48.216;16.482;2022-10-16T05:08:13;100196.09;;;9.48;100.00
35519;BME280;21627;48.216;16.482;2022-10-16T05:10:42;100190.94;;;9.51;100.00
35519;BME280;21627;48.216;16.482;2022-10-16T05:13:10;100192.69;;;9.54;100.00
35519;BME280;21627;48.216;16.482;2022-10-16T05:15:38;100196.13;;;9.54;100.00
35519;BME280;21627;48.216;16.482;2022-10-16T05:18:05;100198.78;;;9.58;100.00
35519;BME280;21627;48.216;16.482;2022-10-16T05:20:32;100199.66;;;9.61;100.00
35519;BME280;21627;48.216;16.482;2022-10-16T05:22:59;100204.03;;;9.65;100.00
35519;BME280;21627;48.216;16.482;2022-10-16T05:25:26;100210.94;;;9.68;100.00
35519;BME280;21627;48.216;16.482;2022-10-16T05:27:53;100217.81;;;9.69;100.00
35519;BME280;21627;48.216;16.482;2022-10-16T05:30:20;100208.38;;;9.71;100.00
35519;BME280;21627;48.216;16.482;2022-10-16T05:32:49;100213.53;;;9.72;100.00
35519;BME280;21627;48.216;16.482;2022-10-16T05:35:18;100216.09;;;9.69;100.00
35519;BME280;21627;48.216;16.482;2022-10-16T05:37:46;100210.09;;;9.72;100.00
35519;BME280;21627;48.216;16.482;2022-10-16T05:40:14;100222.25;;;9.81;100.00
35519;BME280;21627;48.216;16.482;2022-10-16T05:42:41;100225.72;;;9.84;100.00
35519;BME280;21627;48.216;16.482;2022-10-16T05:45:10;100229.25;;;9.91;100.00
35519;BME280;21627;48.216;16.482;2022-10-16T05:47:39;100230.16;;;9.93;100.00
35519;BME280;21627;48.216;16.482;2022-10-16T05:50:07;100224.16;;;9.99;100.00
35519;BME280;21627;48.216;16.482;2022-10-16T05:52:35;100230.25;;;10.04;100.00
35519;BME280;21627;48.216;16.482;2022-10-16T05:55:03;100234.63;;;10.12;100.00
35519;BME280;21627;48.216;16.482;2022-10-16T05:57:30;100228.72;;;10.27;100.00
35519;BME280;21627;48.216;16.482;2022-10-16T05:59:57;100238.25;;;10.30;100.00
35519;BME280;21627;48.216;16.482;2022-10-16T06:02:25;100244.38;;;10.39;100.00
35519;BME280;21627;48.216;16.482;2022-10-16T06:04:52;100253.94;;;10.48;100.00
35519;BME280;21627;48.216;16.482;2022-10-16T06:07:22;100244.47;;;10.49;100.00
35519;BME280;21627;48.216;16.482;2022-10-16T06:09:52;100252.25;;;10.55;100.00
35519;BME280;21627;48.216;16.482;2022-10-16T06:12:19;100248.84;;;10.56;100.00
35519;BME280;21627;48.216;16.482;2022-10-16T06:14:47;100266.13;;;10.65;100.00
35519;BME280;21627;48.216;16.482;2022-10-16T06:17:15;100260.97;;;10.68;100.00
35519;BME280;21627;48.216;16.482;2022-10-16T06:19:42;100262.75;;;10.72;100.00
35519;BME280;21627;48.216;16.482;2022-10-16T06:22:09;100270.59;;;10.81;100.00
35519;BME280;21627;48.216;16.482;2022-10-16T06:24:36;100266.25;;;10.83;100.00
35519;BME280;21627;48.216;16.482;2022-10-16T06:27:04;100277.53;;;10.90;100.00
35519;BME280;21627;48.216;16.482;2022-10-16T06:29:31;100280.97;;;10.90;100.00
35519;BME280;21627;48.216;16.482;2022-10-16T06:31:58;100285.34;;;10.97;100.00
35519;BME280;21627;48.216;16.482;2022-10-16T06:34:25;100296.63;;;11.09;100.00
35519;BME280;21627;48.216;16.482;2022-10-16T06:36:52;100305.28;;;11.09;100.00
35519;BME280;21627;48.216;16.482;2022-10-16T06:39:20;100313.03;;;11.11;100.00
35519;BME280;21627;48.216;16.482;2022-10-16T06:41:47;100297.53;;;11.15;100.00
35519;BME280;21627;48.216;16.482;2022-10-16T06:44:14;100309.63;;;11.16;100.00
35519;BME280;21627;48.216;16.482;2022-10-16T06:46:41;100312.25;;;11.19;100.00
35519;BME280;21627;48.216;16.482;2022-10-16T06:49:08;100312.28;;;11.24;100.00
35519;BME280;21627;48.216;16.482;2022-10-16T06:51:35;100305.34;;;11.26;100.00
35519;BME280;21627;48.216;16.482;2022-10-16T06:54:09;100310.59;;;11.29;100.00
35519;BME280;21627;48.216;16.482;2022-10-16T06:56:36;100296.75;;;11.27;100.00
35519;BME280;21627;48.216;16.482;2022-10-16T06:59:04;100301.09;;;11.33;100.00
35519;BME280;21627;48.216;16.482;2022-10-16T07:01:32;100311.50;;;11.43;100.00
35519;BME280;21627;48.216;16.482;2022-10-16T07:04:01;100321.00;;;11.46;100.00
35519;BME280;21627;48.216;16.482;2022-10-16T07:06:32;100323.59;;;11.43;100.00
35519;BME280;21627;48.216;16.482;2022-10-16T07:09:06;100340.88;;;11.47;100.00
35519;BME280;21627;48.216;16.482;2022-10-16T07:11:39;100332.22;;;11.43;100.00
35519;BME280;21627;48.216;16.482;2022-10-16T07:14:16;100335.69;;;11.45;100.00
35519;BME280;21627;48.216;16.482;2022-10-16T07:16:44;100342.66;;;11.54;100.00
35519;BME280;21627;48.216;16.482;2022-10-16T07:19:11;100343.53;;;11.55;100.00
35519;BME280;21627;48.216;16.482;2022-10-16T07:21:41;100332.31;;;11.54;100.00
35519;BME280;21627;48.216;16.482;2022-10-16T07:24:14;100335.75;;;11.58;100.00
35519;BME280;21627;48.216;16.482;2022-10-16T07:26:44;100335.75;;;11.56;100.00
35519;BME280;21627;48.216;16.482;2022-10-16T07:29:20;100335.81;;;11.67;100.00
35519;BME280;21627;48.216;16.482;2022-10-16T07:31:49;100349.66;;;11.74;100.00
35519;BME280;21627;48.216;16.482;2022-10-16T07:34:18;100346.22;;;11.78;100.00
35519;BME280;21627;48.216;16.482;2022-10-16T07:36:48;100340.19;;;11.80;100.00
35519;BME280;21627;48.216;16.482;2022-10-16T07:39:17;100349.75;;;11.89;100.00
35519;BME280;21627;48.216;16.482;2022-10-16T07:41:44;100350.66;;;11.97;100.00
35519;BME280;21627;48.216;16.482;2022-10-16T07:44:11;100337.72;;;11.97;100.00
35519;BME280;21627;48.216;16.482;2022-10-16T07:46:38;100351.56;;;12.05;100.00
35519;BME280;21627;48.216;16.482;2022-10-16T07:49:05;100339.44;;;11.98;100.00
35519;BME280;21627;48.216;16.482;2022-10-16T07:51:32;100356.72;;;12.02;100.00
35519;BME280;21627;48.216;16.482;2022-10-16T07:54:00;100353.25;;;11.96;100.00
35519;BME280;21627;48.216;16.482;2022-10-16T07:56:27;100352.38;;;11.95;100.00
35519;BME280;21627;48.216;16.482;2022-10-16T07:58:54;100361.03;;;12.02;100.00
35519;BME280;21627;48.216;16.482;2022-10-16T08:01:23;100355.84;;;12.02;100.00
35519;BME280;21627;48.216;16.482;2022-10-16T08:03:51;100365.38;;;12.03;100.00
35519;BME280;21627;48.216;16.482;2022-10-16T08:06:21;100369.69;;;12.05;100.00
35519;BME280;21627;48.216;16.482;2022-10-16T08:08:57;100378.34;;;12.07;100.00
35519;BME280;21627;48.216;16.482;2022-10-16T08:11:26;100372.34;;;12.18;100.00
35519;BME280;21627;48.216;16.482;2022-10-16T08:13:53;100380.13;;;12.21;100.00
35519;BME280;21627;48.216;16.482;2022-10-16T08:16:22;100377.53;;;12.18;100.00
35519;BME280;21627;48.216;16.482;2022-10-16T08:18:49;100388.78;;;12.27;100.00
35519;BME280;21627;48.216;16.482;2022-10-16T08:21:21;100387.09;;;12.32;100.00
35519;BME280;21627;48.216;16.482;2022-10-16T08:23:50;100384.50;;;12.32;100.00
35519;BME280;21627;48.216;16.482;2022-10-16T08:26:25;100389.69;;;12.36;100.00
35519;BME280;21627;48.216;16.482;2022-10-16T08:28:54;100396.59;;;12.40;100.00
35519;BME280;21627;48.216;16.482;2022-10-16T08:31:21;100387.97;;;12.38;100.00
35519;BME280;21627;48.216;16.482;2022-10-16T08:33:49;100391.41;;;12.40;100.00
35519;BME280;21627;48.216;16.482;2022-10-16T08:36:16;100403.53;;;12.45;100.00
35519;BME280;21627;48.216;16.482;2022-10-16T08:38:43;100405.25;;;12.46;100.00
35519;BME280;21627;48.216;16.482;2022-10-16T08:46:56;100417.38;;;12.53;100.00
35519;BME280;21627;48.216;16.482;2022-10-16T08:49:30;100416.50;;;12.51;100.00
35519;BME280;21627;48.216;16.482;2022-10-16T08:51:57;100402.69;;;12.51;100.00
35519;BME280;21627;48.216;16.482;2022-10-16T08:54:36;100407.00;;;12.60;100.00
35519;BME280;21627;48.216;16.482;2022-10-16T08:57:28;100403.56;;;12.59;100.00
35519;BME280;21627;48.216;16.482;2022-10-16T09:00:05;100415.69;;;12.71;100.00
35519;BME280;21627;48.216;16.482;2022-10-16T09:02:45;100406.19;;;12.68;100.00
35519;BME280;21627;48.216;16.482;2022-10-16T09:06:00;100399.25;;;12.75;100.00
35519;BME280;21627;48.216;16.482;2022-10-16T09:14:52;100407.97;;;13.11;100.00
35519;BME280;21627;48.216;16.482;2022-10-16T09:22:35;100410.56;;;13.41;100.00
35519;BME280;21627;48.216;16.482;2022-10-16T09:25:14;100408.84;;;13.47;100.00
35519;BME280;21627;48.216;16.482;2022-10-16T09:27:45;100420.94;;;13.57;100.00
35519;BME280;21627;48.216;16.482;2022-10-16T09:30:17;100421.78;;;13.57;100.00
35519;BME280;21627;48.216;16.482;2022-10-16T09:32:47;100423.53;;;13.66;100.00
35519;BME280;21627;48.216;16.482;2022-10-16T09:35:37;100422.66;;;13.69;100.00
35519;BME280;21627;48.216;16.482;2022-10-16T09:38:06;100406.19;;;13.67;100.00
35519;BME280;21627;48.216;16.482;2022-10-16T09:40:38;100422.63;;;13.73;100.00
35519;BME280;21627;48.216;16.482;2022-10-16T09:43:21;100438.19;;;13.87;100.00
35519;BME280;21627;48.216;16.482;2022-10-16T09:46:00;100433.84;;;13.92;100.00
35519;BME280;21627;48.216;16.482;2022-10-16T09:48:49;100441.63;;;14.09;100.00
35519;BME280;21627;48.216;16.482;2022-10-16T09:51:31;100440.72;;;14.13;100.00
35519;BME280;21627;48.216;16.482;2022-10-16T09:56:35;100439.88;;;14.10;100.00
35519;BME280;21627;48.216;16.482;2022-10-16T09:59:23;100436.34;;;14.18;100.00
35519;BME280;21627;48.216;16.482;2022-10-16T10:02:03;100426.81;;;14.20;100.00
35519;BME280;21627;48.216;16.482;2022-10-16T10:04:42;100438.03;;;14.33;100.00
35519;BME280;21627;48.216;16.482;2022-10-16T10:07:24;100431.09;;;14.40;100.00
35519;BME280;21627;48.216;16.482;2022-10-16T10:09:54;100436.25;;;14.49;100.00
35519;BME280;21627;48.216;16.482;2022-10-16T10:12:27;100430.16;;;14.52;100.00
35519;BME280;21627;48.216;16.482;2022-10-16T10:14:58;100439.66;;;14.63;100.00
35519;BME280;21627;48.216;16.482;2022-10-16T10:17:27;100444.81;;;14.73;100.00
35519;BME280;21627;48.216;16.482;2022-10-16T10:19:57;100426.63;;;14.69;100.00
35519;BME280;21627;48.216;16.482;2022-10-16T10:40:07;100450.22;;;15.61;100.00
35519;BME280;21627;48.216;16.482;2022-10-16T10:42:57;100444.94;;;15.71;100.00
35519;BME280;21627;48.216;16.482;2022-10-16T10:45:44;100423.13;;;15.80;100.00
35519;BME280;21627;48.216;16.482;2022-10-16T10:51:08;100423.63;;;16.10;100.00
35519;BME280;21627;48.216;16.482;2022-10-16T10:57:02;100411.09;;;16.41;100.00
35519;BME280;21627;48.216;16.482;2022-10-16T11:00:17;100412.41;;;16.70;100.00
35519;BME280;21627;48.216;16.482;2022-10-16T11:08:41;100425.03;;;17.02;100.00
35519;BME280;21627;48.216;16.482;2022-10-16T11:11:25;100412.56;;;17.19;100.00
35519;BME280;21627;48.216;16.482;2022-10-16T11:19:44;100400.25;;;17.74;100.00
35519;BME280;21627;48.216;16.482;2022-10-16T11:22:46;100398.03;;;17.99;100.00
35519;BME280;21627;48.216;16.482;2022-10-16T11:25:41;100385.59;;;18.10;100.00
35519;BME280;21627;48.216;16.482;2022-10-16T11:28:32;100382.72;;;18.23;100.00
35519;BME280;21627;48.216;16.482;2022-10-16T11:39:45;100394.47;;;18.84;100.00
35519;BME280;21627;48.216;16.482;2022-10-16T11:42:21;100382.78;;;18.97;100.00
35519;BME280;21627;48.216;16.482;2022-10-16T11:48:21;100388.81;;;19.02;100.00
35519;BME280;21627;48.216;16.482;2022-10-16T11:54:24;100392.25;;;19.37;100.00
35519;BME280;21627;48.216;16.482;2022-10-16T11:56:59;100392.03;;;19.46;100.00
35519;BME280;21627;48.216;16.482;2022-10-16T12:00:04;100393.50;;;19.57;100.00
35519;BME280;21627;48.216;16.482;2022-10-16T12:08:28;100383.63;;;19.68;98.74
35519;BME280;21627;48.216;16.482;2022-10-16T12:11:37;100390.78;;;19.61;94.52
35519;BME280;21627;48.216;16.482;2022-10-16T12:20:39;100392.09;;;20.09;89.00
35519;BME280;21627;48.216;16.482;2022-10-16T12:23:05;100392.50;;;20.25;95.58
35519;BME280;21627;48.216;16.482;2022-10-16T12:25:39;100399.63;;;20.21;88.63
35519;BME280;21627;48.216;16.482;2022-10-16T12:30:51;100386.16;;;20.62;92.19
35519;BME280;21627;48.216;16.482;2022-10-16T12:33:33;100380.88;;;20.90;92.19
35519;BME280;21627;48.216;16.482;2022-10-16T12:36:04;100368.03;;;21.07;87.08
35519;BME280;21627;48.216;16.482;2022-10-16T12:38:52;100377.53;;;21.11;81.11
35519;BME280;21627;48.216;16.482;2022-10-16T12:41:35;100374.06;;;21.11;85.27
35519;BME280;21627;48.216;16.482;2022-10-16T12:44:04;100375.88;;;21.09;86.83
35519;BME280;21627;48.216;16.482;2022-10-16T12:46:39;100384.00;;;21.28;83.58
35519;BME280;21627;48.216;16.482;2022-10-16T12:51:41;100400.38;;;21.63;80.23
35519;BME280;21627;48.216;16.482;2022-10-16T12:54:19;100391.09;;;21.77;79.92
35519;BME280;21627;48.216;16.482;2022-10-16T13:00:19;100392.34;;;22.14;76.65
35519;BME280;21627;48.216;16.482;2022-10-16T13:23:36;100395.28;;;22.98;73.66
35519;BME280;21627;48.216;16.482;2022-10-16T13:26:20;100393.75;;;23.14;72.98
35519;BME280;21627;48.216;16.482;2022-10-16T13:28:49;100388.03;;;23.03;70.28
35519;BME280;21627;48.216;16.482;2022-10-16T13:31:23;100386.72;;;23.13;70.57
35519;BME280;21627;48.216;16.482;2022-10-16T13:33:54;100396.25;;;23.38;71.23
35519;BME280;21627;48.216;16.482;2022-10-16T13:36:35;100406.00;;;23.36;68.93
35519;BME280;21627;48.216;16.482;2022-10-16T13:39:26;100406.81;;;23.38;67.51
35519;BME280;21627;48.216;16.482;2022-10-16T13:42:12;100408.47;;;23.40;67.60
35519;BME280;21627;48.216;16.482;2022-10-16T13:44:46;100408.25;;;23.45;67.79
35519;BME280;21627;48.216;16.482;2022-10-16T13:47:24;100413.59;;;23.43;66.34
35519;BME280;21627;48.216;16.482;2022-10-16T13:50:11;100413.41;;;23.05;65.96
35519;BME280;21627;48.216;16.482;2022-10-16T13:52:38;100405.38;;;22.86;67.85
35519;BME280;21627;48.216;16.482;2022-10-16T13:55:16;100417.28;;;22.75;70.15
35519;BME280;21627;48.216;16.482;2022-10-16T13:57:44;100410.47;;;22.69;71.15
35519;BME280;21627;48.216;16.482;2022-10-16T14:00:19;100412.47;;;22.40;71.47
35519;BME280;21627;48.216;16.482;2022-10-16T14:02:53;100413.28;;;22.17;72.07
35519;BME280;21627;48.216;16.482;2022-10-16T14:05:22;100402.34;;;22.04;73.14
35519;BME280;21627;48.216;16.482;2022-10-16T14:07:51;100414.91;;;22.23;71.15
35519;BME280;21627;48.216;16.482;2022-10-16T14:10:27;100406.78;;;22.51;71.62
35519;BME280;21627;48.216;16.482;2022-10-16T14:13:05;100414.25;;;22.62;70.10
35519;BME280;21627;48.216;16.482;2022-10-16T14:15:35;100409.28;;;22.54;69.82
35519;BME280;21627;48.216;16.482;2022-10-16T14:18:03;100407.84;;;22.69;68.54
35519;BME280;21627;48.216;16.482;2022-10-16T14:20:33;100401.44;;;22.75;68.93
35519;BME280;21627;48.216;16.482;2022-10-16T14:23:50;100403.88;;;22.81;67.37
35519;BME280;21627;48.216;16.482;2022-10-16T14:25:53;100409.19;;;22.79;66.45
35519;BME280;21627;48.216;16.482;2022-10-16T14:28:22;100401.09;;;22.62;68.08
35519;BME280;21627;48.216;16.482;2022-10-16T14:30:56;100407.59;;;22.53;68.78
35519;BME280;21627;48.216;16.482;2022-10-16T14:36:11;100407.03;;;22.21;70.66
35519;BME280;21627;48.216;16.482;2022-10-16T14:38:41;100409.41;;;22.04;69.43
35519;BME280;21627;48.216;16.482;2022-10-16T14:41:09;100414.53;;;21.83;69.10
35519;BME280;21627;48.216;16.482;2022-10-16T14:43:40;100412.41;;;21.70;71.91
35519;BME280;21627;48.216;16.482;2022-10-16T14:52:14;100417.72;;;21.43;73.30
35519;BME280;21627;48.216;16.482;2022-10-16T14:54:41;100407.53;;;21.32;73.02
35519;BME280;21627;48.216;16.482;2022-10-16T14:57:18;100405.50;;;21.14;73.72
35519;BME280;21627;48.216;16.482;2022-10-16T14:59:47;100405.03;;;21.01;75.63
35519;BME280;21627;48.216;16.482;2022-10-16T15:04:49;100422.84;;;20.93;76.01
35519;BME280;21627;48.216;16.482;2022-10-16T15:07:16;100417.25;;;20.75;77.33
35519;BME280;21627;48.216;16.482;2022-10-16T15:09:44;100428.13;;;20.65;78.33
35519;BME280;21627;48.216;16.482;2022-10-16T15:12:16;100427.72;;;20.47;79.80
35519;BME280;21627;48.216;16.482;2022-10-16T15:14:43;100433.19;;;20.41;81.14
35519;BME280;21627;48.216;16.482;2022-10-16T15:17:11;100434.41;;;20.28;80.00
35519;BME280;21627;48.216;16.482;2022-10-16T15:19:38;100436.50;;;20.17;81.33